sensor_id;sensor_type;location;lat;lon;timestamp;temperature;humidity
17170;DHT22;8700;48.222;16.342;2023-02-15T00:02:17;6.00;99.90
17170;DHT22;8700;48.222;16.342;2023-02-15T00:05:39;5.90;99.90
17170;DHT22;8700;48.222;16.342;2023-02-15T00:09:01;6.00;99.90
17170;DHT22;8700;48.222;16.342;2023-02-15T00:12:22;6.00;99.90
17170;DHT22;8700;48.222;16.342;2023-02-15T00:15:44;6.10;99.90
17170;DHT22;8700;48.222;16.342;2023-02-15T00:19:06;6.00;99.90
17170;DHT22;8700;48.222;16.342;2023-02-15T00:22:28;6.00;99.90
17170;DHT22;8700;48.222;16.342;2023-02-15T00:25:49;6.00;99.90
17170;DHT22;8700;48.222;16.342;2023-02-15T00:29:15;6.00;99.90
17170;DHT22;8700;48.222;16.342;2023-02-15T00:32:40;6.10;99.90
17170;DHT22;8700;48.222;16.342;2023-02-15T00:36:04;6.10;99.90
17170;DHT22;8700;48.222;16.342;2023-02-15T00:39:26;5.90;99.90
17170;DHT22;8700;48.222;16.342;2023-02-15T00:42:48;5.60;99.90
17170;DHT22;8700;48.222;16.342;2023-02-15T00:46:09;5.70;99.90
17170;DHT22;8700;48.222;16.342;2023-02-15T00:49:32;5.90;99.90
17170;DHT22;8700;48.222;16.342;2023-02-15T00:52:53;6.10;99.90
17170;DHT22;8700;48.222;16.342;2023-02-15T00:56:14;6.10;99.90
17170;DHT22;8700;48.222;16.342;2023-02-15T00:59:35;6.10;99.90
17170;DHT22;8700;48.222;16.342;2023-02-15T01:02:57;5.70;99.90
17170;DHT22;8700;48.222;16.342;2023-02-15T01:06:19;5.70;99.90
17170;DHT22;8700;48.222;16.342;2023-02-15T01:09:41;5.20;99.90
17170;DHT22;8700;48.222;16.342;2023-02-15T01:13:02;5.40;99.90
17170;DHT22;8700;48.222;16.342;2023-02-15T01:16:26;5.70;99.90
17170;DHT22;8700;48.222;16.342;2023-02-15T01:19:47;5.80;99.90
17170;DHT22;8700;48.222;16.342;2023-02-15T01:23:10;5.90;99.90
17170;DHT22;8700;48.222;16.342;2023-02-15T01:26:31;6.00;99.90
17170;DHT22;8700;48.222;16.342;2023-02-15T01:29:52;6.00;99.90
17170;DHT22;8700;48.222;16.342;2023-02-15T01:33:13;5.90;99.90
17170;DHT22;8700;48.222;16.342;2023-02-15T01:36:37;6.00;99.90
17170;DHT22;8700;48.222;16.342;2023-02-15T01:39:59;5.90;99.90
17170;DHT22;8700;48.222;16.342;2023-02-15T01:43:21;5.90;99.90
17170;DHT22;8700;48.222;16.342;2023-02-15T01:46:49;5.90;99.90
17170;DHT22;8700;48.222;16.342;2023-02-15T01:50:14;5.80;99.90
17170;DHT22;8700;48.222;16.342;2023-02-15T01:53:39;5.80;99.90
17170;DHT22;8700;48.222;16.342;2023-02-15T01:57:05;5.70;99.90
17170;DHT22;8700;48.222;16.342;2023-02-15T02:00:29;5.70;99.90
17170;DHT22;8700;48.222;16.342;2023-02-15T02:03:58;5.70;99.90
17170;DHT22;8700;48.222;16.342;2023-02-15T02:07:22;5.70;99.90
17170;DHT22;8700;48.222;16.342;2023-02-15T02:10:44;5.60;99.90
17170;DHT22;8700;48.222;16.342;2023-02-15T02:14:07;5.50;99.90
17170;DHT22;8700;48.222;16.342;2023-02-15T02:17:37;5.40;99.90
17170;DHT22;8700;48.222;16.342;2023-02-15T02:25:24;5.50;99.90
17170;DHT22;8700;48.222;16.342;2023-02-15T02:36:50;5.40;99.90
17170;DHT22;8700;48.222;16.342;2023-02-15T02:40:20;5.40;99.90
17170;DHT22;8700;48.222;16.342;2023-02-15T02:43:50;5.40;99.90
17170;DHT22;8700;48.222;16.342;2023-02-15T02:47:17;5.40;99.90
17170;DHT22;8700;48.222;16.342;2023-02-15T02:50:42;5.40;99.90
17170;DHT22;8700;48.222;16.342;2023-02-15T02:54:05;5.60;99.90
17170;DHT22;8700;48.222;16.342;2023-02-15T02:57:27;5.50;99.90
17170;DHT22;8700;48.222;16.342;2023-02-15T03:00:53;5.50;99.90
17170;DHT22;8700;48.222;16.342;2023-02-15T03:04:17;5.40;99.90
17170;DHT22;8700;48.222;16.342;2023-02-15T03:07:41;5.30;99.90
17170;DHT22;8700;48.222;16.342;2023-02-15T03:11:04;5.40;99.90
17170;DHT22;8700;48.222;16.342;2023-02-15T03:14:25;5.40;99.90
17170;DHT22;8700;48.222;16.342;2023-02-15T03:17:53;5.40;99.90
17170;DHT22;8700;48.222;16.342;2023-02-15T03:21:16;5.50;99.90
17170;DHT22;8700;48.222;16.342;2023-02-15T03:24:44;5.50;99.90
17170;DHT22;8700;48.222;16.342;2023-02-15T03:28:10;5.50;99.90
17170;DHT22;8700;48.222;16.342;2023-02-15T03:31:35;5.50;99.90
17170;DHT22;8700;48.222;16.342;2023-02-15T03:34:58;5.50;99.90
17170;DHT22;8700;48.222;16.342;2023-02-15T03:38:24;5.40;99.90
17170;DHT22;8700;48.222;16.342;2023-02-15T03:41:55;5.40;99.90
17170;DHT22;8700;48.222;16.342;2023-02-15T03:45:24;5.30;99.90
17170;DHT22;8700;48.222;16.342;2023-02-15T03:48:50;5.30;99.90
17170;DHT22;8700;48.222;16.342;2023-02-15T03:52:14;5.30;99.90
17170;DHT22;8700;48.222;16.342;2023-02-15T03:55:36;5.40;99.90
17170;DHT22;8700;48.222;16.342;2023-02-15T03:58:59;5.50;99.90
17170;DHT22;8700;48.222;16.342;2023-02-15T04:02:42;5.40;99.90
17170;DHT22;8700;48.222;16.342;2023-02-15T04:06:05;5.30;99.90
17170;DHT22;8700;48.222;16.342;2023-02-15T04:09:27;5.30;99.90
17170;DHT22;8700;48.222;16.342;2023-02-15T04:13:05;5.20;99.90
17170;DHT22;8700;48.222;16.342;2023-02-15T04:16:28;5.10;99.90
17170;DHT22;8700;48.222;16.342;2023-02-15T04:19:48;5.00;99.90
17170;DHT22;8700;48.222;16.342;2023-02-15T04:23:27;5.10;99.90
17170;DHT22;8700;48.222;16.342;2023-02-15T04:27:06;5.00;99.90
17170;DHT22;8700;48.222;16.342;2023-02-15T04:30:27;5.10;99.90
17170;DHT22;8700;48.222;16.342;2023-02-15T04:33:49;4.90;99.90
17170;DHT22;8700;48.222;16.342;2023-02-15T04:37:10;5.00;99.90
17170;DHT22;8700;48.222;16.342;2023-02-15T04:40:32;5.10;99.90
17170;DHT22;8700;48.222;16.342;2023-02-15T04:43:53;5.10;99.90
17170;DHT22;8700;48.222;16.342;2023-02-15T04:47:14;5.10;99.90
17170;DHT22;8700;48.222;16.342;2023-02-15T04:50:37;5.20;99.90
17170;DHT22;8700;48.222;16.342;2023-02-15T04:53:58;5.00;99.90
17170;DHT22;8700;48.222;16.342;2023-02-15T04:57:19;4.70;99.90
17170;DHT22;8700;48.222;16.342;2023-02-15T05:00:40;4.70;99.90
17170;DHT22;8700;48.222;16.342;2023-02-15T05:04:02;4.90;99.90
17170;DHT22;8700;48.222;16.342;2023-02-15T05:07:25;5.00;99.90
17170;DHT22;8700;48.222;16.342;2023-02-15T05:10:47;5.00;99.90
17170;DHT22;8700;48.222;16.342;2023-02-15T05:14:09;5.10;99.90
17170;DHT22;8700;48.222;16.342;2023-02-15T05:17:30;5.10;99.90
17170;DHT22;8700;48.222;16.342;2023-02-15T05:20:51;5.10;99.90
17170;DHT22;8700;48.222;16.342;2023-02-15T05:24:14;5.10;99.90
17170;DHT22;8700;48.222;16.342;2023-02-15T05:27:52;5.00;99.90
17170;DHT22;8700;48.222;16.342;2023-02-15T05:31:41;4.80;99.90
17170;DHT22;8700;48.222;16.342;2023-02-15T05:35:13;4.90;99.90
17170;DHT22;8700;48.222;16.342;2023-02-15T05:38:36;4.60;99.90
17170;DHT22;8700;48.222;16.342;2023-02-15T05:41:59;4.30;99.90
17170;DHT22;8700;48.222;16.342;2023-02-15T05:45:21;4.30;99.90
17170;DHT22;8700;48.222;16.342;2023-02-15T05:48:45;4.50;99.90
17170;DHT22;8700;48.222;16.342;2023-02-15T05:52:06;4.90;99.90
17170;DHT22;8700;48.222;16.342;2023-02-15T05:55:27;5.10;99.90
17170;DHT22;8700;48.222;16.342;2023-02-15T05:58:53;5.10;99.90
17170;DHT22;8700;48.222;16.342;2023-02-15T06:02:14;5.00;99.90
17170;DHT22;8700;48.222;16.342;2023-02-15T06:05:35;4.60;99.90
17170;DHT22;8700;48.222;16.342;2023-02-15T06:08:56;4.40;99.90
17170;DHT22;8700;48.222;16.342;2023-02-15T06:12:17;4.40;99.90
17170;DHT22;8700;48.222;16.342;2023-02-15T06:15:40;4.30;99.90
17170;DHT22;8700;48.222;16.342;2023-02-15T06:19:01;4.30;99.90
17170;DHT22;8700;48.222;16.342;2023-02-15T06:22:22;4.60;99.90
17170;DHT22;8700;48.222;16.342;2023-02-15T06:25:44;4.70;99.90
17170;DHT22;8700;48.222;16.342;2023-02-15T06:29:06;4.70;99.90
17170;DHT22;8700;48.222;16.342;2023-02-15T06:32:28;4.60;99.90
17170;DHT22;8700;48.222;16.342;2023-02-15T06:35:50;4.70;99.90
17170;DHT22;8700;48.222;16.342;2023-02-15T06:39:11;5.00;99.90
17170;DHT22;8700;48.222;16.342;2023-02-15T06:42:32;5.10;99.90
17170;DHT22;8700;48.222;16.342;2023-02-15T06:45:53;5.20;99.90
17170;DHT22;8700;48.222;16.342;2023-02-15T06:49:16;5.20;99.90
17170;DHT22;8700;48.222;16.342;2023-02-15T06:52:37;5.10;99.90
17170;DHT22;8700;48.222;16.342;2023-02-15T06:56:00;5.10;99.90
17170;DHT22;8700;48.222;16.342;2023-02-15T06:59:22;4.90;99.90
17170;DHT22;8700;48.222;16.342;2023-02-15T07:02:43;4.70;99.90
17170;DHT22;8700;48.222;16.342;2023-02-15T07:06:06;4.80;99.90
17170;DHT22;8700;48.222;16.342;2023-02-15T07:09:28;4.80;99.90
17170;DHT22;8700;48.222;16.342;2023-02-15T07:12:50;5.00;99.90
17170;DHT22;8700;48.222;16.342;2023-02-15T07:16:11;4.80;99.90
17170;DHT22;8700;48.222;16.342;2023-02-15T07:19:33;4.50;99.90
17170;DHT22;8700;48.222;16.342;2023-02-15T07:22:55;4.60;99.90
17170;DHT22;8700;48.222;16.342;2023-02-15T07:26:16;4.90;99.90
17170;DHT22;8700;48.222;16.342;2023-02-15T07:29:37;4.90;99.90
17170;DHT22;8700;48.222;16.342;2023-02-15T07:32:59;4.80;99.90
17170;DHT22;8700;48.222;16.342;2023-02-15T07:36:38;4.90;99.90
17170;DHT22;8700;48.222;16.342;2023-02-15T07:40:01;5.10;99.90
17170;DHT22;8700;48.222;16.342;2023-02-15T07:43:21;5.00;99.90
17170;DHT22;8700;48.222;16.342;2023-02-15T07:46:43;5.30;99.90
17170;DHT22;8700;48.222;16.342;2023-02-15T07:50:05;5.40;99.90
17170;DHT22;8700;48.222;16.342;2023-02-15T07:53:27;5.30;99.90
17170;DHT22;8700;48.222;16.342;2023-02-15T07:56:49;5.20;99.90
17170;DHT22;8700;48.222;16.342;2023-02-15T08:00:12;5.40;99.90
17170;DHT22;8700;48.222;16.342;2023-02-15T08:03:33;5.20;99.90
17170;DHT22;8700;48.222;16.342;2023-02-15T08:06:55;5.30;99.90
17170;DHT22;8700;48.222;16.342;2023-02-15T08:10:16;5.10;99.90
17170;DHT22;8700;48.222;16.342;2023-02-15T08:14:00;5.10;99.90
17170;DHT22;8700;48.222;16.342;2023-02-15T08:17:23;5.10;99.90
17170;DHT22;8700;48.222;16.342;2023-02-15T08:20:49;4.90;99.90
17170;DHT22;8700;48.222;16.342;2023-02-15T08:24:11;5.30;99.90
17170;DHT22;8700;48.222;16.342;2023-02-15T08:27:33;5.50;99.90
17170;DHT22;8700;48.222;16.342;2023-02-15T08:30:55;5.60;99.90
17170;DHT22;8700;48.222;16.342;2023-02-15T08:34:18;5.50;99.90
17170;DHT22;8700;48.222;16.342;2023-02-15T08:37:40;5.50;99.90
17170;DHT22;8700;48.222;16.342;2023-02-15T08:41:14;5.10;99.90
17170;DHT22;8700;48.222;16.342;2023-02-15T08:44:36;5.20;99.90
17170;DHT22;8700;48.222;16.342;2023-02-15T08:47:58;5.10;99.90
17170;DHT22;8700;48.222;16.342;2023-02-15T08:51:21;5.10;99.90
17170;DHT22;8700;48.222;16.342;2023-02-15T08:54:42;5.30;99.90
17170;DHT22;8700;48.222;16.342;2023-02-15T08:58:04;5.50;99.90
17170;DHT22;8700;48.222;16.342;2023-02-15T09:01:26;5.50;99.90
17170;DHT22;8700;48.222;16.342;2023-02-15T09:04:49;5.30;99.90
17170;DHT22;8700;48.222;16.342;2023-02-15T09:08:11;5.50;99.90
17170;DHT22;8700;48.222;16.342;2023-02-15T09:11:34;5.30;99.90
17170;DHT22;8700;48.222;16.342;2023-02-15T09:14:56;5.60;99.90
17170;DHT22;8700;48.222;16.342;2023-02-15T09:18:17;5.60;99.90
17170;DHT22;8700;48.222;16.342;2023-02-15T09:21:41;5.50;99.90
17170;DHT22;8700;48.222;16.342;2023-02-15T09:25:02;5.70;99.90
17170;DHT22;8700;48.222;16.342;2023-02-15T09:28:24;6.00;99.90
17170;DHT22;8700;48.222;16.342;2023-02-15T09:31:46;5.70;99.90
17170;DHT22;8700;48.222;16.342;2023-02-15T09:35:10;5.50;99.90
17170;DHT22;8700;48.222;16.342;2023-02-15T09:38:32;5.50;99.90
17170;DHT22;8700;48.222;16.342;2023-02-15T09:42:34;5.90;99.90
17170;DHT22;8700;48.222;16.342;2023-02-15T09:46:13;6.30;99.90
17170;DHT22;8700;48.222;16.342;2023-02-15T09:49:45;6.10;99.90
17170;DHT22;8700;48.222;16.342;2023-02-15T09:53:19;6.30;99.90
17170;DHT22;8700;48.222;16.342;2023-02-15T09:56:49;6.20;99.90
17170;DHT22;8700;48.222;16.342;2023-02-15T10:00:19;6.10;99.90
17170;DHT22;8700;48.222;16.342;2023-02-15T10:03:53;6.00;99.90
17170;DHT22;8700;48.222;16.342;2023-02-15T10:07:28;6.00;99.90
17170;DHT22;8700;48.222;16.342;2023-02-15T10:11:05;6.30;99.90
17170;DHT22;8700;48.222;16.342;2023-02-15T10:15:04;6.10;99.90
17170;DHT22;8700;48.222;16.342;2023-02-15T10:18:48;6.40;99.90
17170;DHT22;8700;48.222;16.342;2023-02-15T10:22:24;6.60;99.90
17170;DHT22;8700;48.222;16.342;2023-02-15T10:25:54;7.00;99.90
17170;DHT22;8700;48.222;16.342;2023-02-15T10:29:27;6.90;99.90
17170;DHT22;8700;48.222;16.342;2023-02-15T10:32:59;6.80;99.90
17170;DHT22;8700;48.222;16.342;2023-02-15T10:36:31;6.30;99.90
17170;DHT22;8700;48.222;16.342;2023-02-15T10:40:04;6.50;99.90
17170;DHT22;8700;48.222;16.342;2023-02-15T10:43:41;6.70;99.90
17170;DHT22;8700;48.222;16.342;2023-02-15T10:51:00;6.70;99.90
17170;DHT22;8700;48.222;16.342;2023-02-15T10:54:29;7.10;99.90
17170;DHT22;8700;48.222;16.342;2023-02-15T10:58:02;6.80;99.90
17170;DHT22;8700;48.222;16.342;2023-02-15T11:01:29;6.70;99.90
17170;DHT22;8700;48.222;16.342;2023-02-15T11:04:56;6.40;99.90
17170;DHT22;8700;48.222;16.342;2023-02-15T11:08:20;6.70;99.90
17170;DHT22;8700;48.222;16.342;2023-02-15T11:11:49;7.30;99.90
17170;DHT22;8700;48.222;16.342;2023-02-15T11:15:17;7.70;99.90
17170;DHT22;8700;48.222;16.342;2023-02-15T11:18:42;7.80;99.90
17170;DHT22;8700;48.222;16.342;2023-02-15T11:22:06;7.60;99.90
17170;DHT22;8700;48.222;16.342;2023-02-15T11:25:43;7.50;99.90
17170;DHT22;8700;48.222;16.342;2023-02-15T11:29:10;8.00;99.90
17170;DHT22;8700;48.222;16.342;2023-02-15T11:32:37;8.80;99.90
17170;DHT22;8700;48.222;16.342;2023-02-15T11:36:01;9.10;99.90
17170;DHT22;8700;48.222;16.342;2023-02-15T11:39:26;9.10;99.90
17170;DHT22;8700;48.222;16.342;2023-02-15T11:42:54;8.30;99.90
17170;DHT22;8700;48.222;16.342;2023-02-15T11:46:16;8.20;99.90
17170;DHT22;8700;48.222;16.342;2023-02-15T11:49:39;7.90;99.90
17170;DHT22;8700;48.222;16.342;2023-02-15T11:53:03;7.40;99.90
17170;DHT22;8700;48.222;16.342;2023-02-15T11:56:25;8.10;99.90
17170;DHT22;8700;48.222;16.342;2023-02-15T11:59:50;7.80;99.90
17170;DHT22;8700;48.222;16.342;2023-02-15T12:03:18;7.80;99.90
17170;DHT22;8700;48.222;16.342;2023-02-15T12:06:45;7.30;99.90
17170;DHT22;8700;48.222;16.342;2023-02-15T12:10:19;7.50;99.90
17170;DHT22;8700;48.222;16.342;2023-02-15T12:13:54;7.40;99.90
17170;DHT22;8700;48.222;16.342;2023-02-15T12:17:18;7.70;99.90
17170;DHT22;8700;48.222;16.342;2023-02-15T12:20:41;7.50;99.90
17170;DHT22;8700;48.222;16.342;2023-02-15T12:24:14;7.50;99.90
17170;DHT22;8700;48.222;16.342;2023-02-15T12:27:43;7.50;99.90
17170;DHT22;8700;48.222;16.342;2023-02-15T12:31:09;7.70;99.90
17170;DHT22;8700;48.222;16.342;2023-02-15T12:34:37;7.60;99.90
17170;DHT22;8700;48.222;16.342;2023-02-15T12:38:03;7.10;99.90
17170;DHT22;8700;48.222;16.342;2023-02-15T12:41:26;6.90;99.90
17170;DHT22;8700;48.222;16.342;2023-02-15T12:44:57;7.20;99.90
17170;DHT22;8700;48.222;16.342;2023-02-15T12:48:19;6.80;99.90
17170;DHT22;8700;48.222;16.342;2023-02-15T12:51:58;6.70;99.90
17170;DHT22;8700;48.222;16.342;2023-02-15T12:55:23;7.20;99.90
17170;DHT22;8700;48.222;16.342;2023-02-15T12:58:45;7.40;99.90
17170;DHT22;8700;48.222;16.342;2023-02-15T13:02:09;7.10;99.90
17170;DHT22;8700;48.222;16.342;2023-02-15T13:05:54;7.00;99.90
17170;DHT22;8700;48.222;16.342;2023-02-15T13:09:19;7.20;99.90
17170;DHT22;8700;48.222;16.342;2023-02-15T13:12:46;7.50;99.90
17170;DHT22;8700;48.222;16.342;2023-02-15T13:16:10;7.40;99.90
17170;DHT22;8700;48.222;16.342;2023-02-15T13:19:34;7.00;99.90
17170;DHT22;8700;48.222;16.342;2023-02-15T13:22:59;7.10;99.90
17170;DHT22;8700;48.222;16.342;2023-02-15T13:26:28;6.90;99.90
17170;DHT22;8700;48.222;16.342;2023-02-15T13:29:53;7.20;99.90
17170;DHT22;8700;48.222;16.342;2023-02-15T13:33:22;7.40;99.90
17170;DHT22;8700;48.222;16.342;2023-02-15T13:36:51;7.70;99.90
17170;DHT22;8700;48.222;16.342;2023-02-15T13:40:19;7.10;99.90
17170;DHT22;8700;48.222;16.342;2023-02-15T13:43:52;7.60;99.90
17170;DHT22;8700;48.222;16.342;2023-02-15T13:47:21;7.60;99.90
17170;DHT22;8700;48.222;16.342;2023-02-15T13:50:52;7.80;99.90
17170;DHT22;8700;48.222;16.342;2023-02-15T13:54:44;7.70;99.90
17170;DHT22;8700;48.222;16.342;2023-02-15T13:58:34;8.10;99.90
17170;DHT22;8700;48.222;16.342;2023-02-15T14:02:23;7.70;99.90
17170;DHT22;8700;48.222;16.342;2023-02-15T14:05:59;7.80;99.90
17170;DHT22;8700;48.222;16.342;2023-02-15T14:09:32;7.60;99.90
17170;DHT22;8700;48.222;16.342;2023-02-15T14:13:12;7.60;99.90
17170;DHT22;8700;48.222;16.342;2023-02-15T14:16:47;7.70;99.90
17170;DHT22;8700;48.222;16.342;2023-02-15T14:20:19;8.00;99.90
17170;DHT22;8700;48.222;16.342;2023-02-15T14:23:48;8.20;99.90
17170;DHT22;8700;48.222;16.342;2023-02-15T14:27:21;7.70;99.90
17170;DHT22;8700;48.222;16.342;2023-02-15T14:30:48;7.60;99.90
17170;DHT22;8700;48.222;16.342;2023-02-15T14:34:19;7.70;99.90
17170;DHT22;8700;48.222;16.342;2023-02-15T14:37:49;7.50;99.90
17170;DHT22;8700;48.222;16.342;2023-02-15T14:41:15;7.60;99.90
17170;DHT22;8700;48.222;16.342;2023-02-15T14:44:42;7.70;99.90
17170;DHT22;8700;48.222;16.342;2023-02-15T14:48:10;7.50;99.90
17170;DHT22;8700;48.222;16.342;2023-02-15T14:51:55;7.40;99.90
17170;DHT22;8700;48.222;16.342;2023-02-15T14:55:35;7.20;99.90
17170;DHT22;8700;48.222;16.342;2023-02-15T14:59:16;7.40;99.90
17170;DHT22;8700;48.222;16.342;2023-02-15T15:02:44;7.20;99.90
17170;DHT22;8700;48.222;16.342;2023-02-15T15:06:24;7.30;99.90
17170;DHT22;8700;48.222;16.342;2023-02-15T15:09:57;7.20;99.90
17170;DHT22;8700;48.222;16.342;2023-02-15T15:13:52;7.40;99.90
17170;DHT22;8700;48.222;16.342;2023-02-15T15:17:54;7.60;99.90
17170;DHT22;8700;48.222;16.342;2023-02-15T15:28:59;6.90;99.90
17170;DHT22;8700;48.222;16.342;2023-02-15T15:32:26;7.00;99.90
17170;DHT22;8700;48.222;16.342;2023-02-15T15:36:16;7.10;99.90
17170;DHT22;8700;48.222;16.342;2023-02-15T15:40:00;7.10;99.90
17170;DHT22;8700;48.222;16.342;2023-02-15T15:43:54;6.90;99.90
17170;DHT22;8700;48.222;16.342;2023-02-15T15:47:39;6.80;99.90
17170;DHT22;8700;48.222;16.342;2023-02-15T15:51:12;6.70;99.90
17170;DHT22;8700;48.222;16.342;2023-02-15T15:54:38;7.00;99.90
17170;DHT22;8700;48.222;16.342;2023-02-15T15:58:03;6.80;99.90
17170;DHT22;8700;48.222;16.342;2023-02-15T16:01:27;6.70;99.90
17170;DHT22;8700;48.222;16.342;2023-02-15T16:04:49;6.40;99.90
17170;DHT22;8700;48.222;16.342;2023-02-15T16:08:11;6.40;99.90
17170;DHT22;8700;48.222;16.342;2023-02-15T16:11:34;6.30;99.90
17170;DHT22;8700;48.222;16.342;2023-02-15T16:15:02;6.20;99.90
17170;DHT22;8700;48.222;16.342;2023-02-15T16:18:26;6.20;99.90
17170;DHT22;8700;48.222;16.342;2023-02-15T16:21:48;6.20;99.90
17170;DHT22;8700;48.222;16.342;2023-02-15T16:25:28;6.00;99.90
17170;DHT22;8700;48.222;16.342;2023-02-15T16:28:53;6.00;99.90
17170;DHT22;8700;48.222;16.342;2023-02-15T16:32:18;5.90;99.90
17170;DHT22;8700;48.222;16.342;2023-02-15T16:35:48;5.80;99.90
17170;DHT22;8700;48.222;16.342;2023-02-15T16:39:20;5.90;99.90
17170;DHT22;8700;48.222;16.342;2023-02-15T16:42:42;5.90;99.90
17170;DHT22;8700;48.222;16.342;2023-02-15T16:46:05;5.90;99.90
17170;DHT22;8700;48.222;16.342;2023-02-15T16:49:28;6.00;99.90
17170;DHT22;8700;48.222;16.342;2023-02-15T16:52:51;6.00;99.90
17170;DHT22;8700;48.222;16.342;2023-02-15T16:56:13;6.10;99.90
17170;DHT22;8700;48.222;16.342;2023-02-15T16:59:39;6.00;99.90
17170;DHT22;8700;48.222;16.342;2023-02-15T17:03:05;6.00;99.90
17170;DHT22;8700;48.222;16.342;2023-02-15T17:06:27;5.90;99.90
17170;DHT22;8700;48.222;16.342;2023-02-15T17:09:50;5.80;99.90
17170;DHT22;8700;48.222;16.342;2023-02-15T17:13:13;5.80;99.90
17170;DHT22;8700;48.222;16.342;2023-02-15T17:16:40;5.70;99.90
17170;DHT22;8700;48.222;16.342;2023-02-15T17:20:02;5.80;99.90
17170;DHT22;8700;48.222;16.342;2023-02-15T17:23:29;5.80;99.90
17170;DHT22;8700;48.222;16.342;2023-02-15T17:26:54;5.60;99.90
17170;DHT22;8700;48.222;16.342;2023-02-15T17:30:25;5.50;99.90
17170;DHT22;8700;48.222;16.342;2023-02-15T17:33:49;5.50;99.90
17170;DHT22;8700;48.222;16.342;2023-02-15T17:37:22;5.40;99.90
17170;DHT22;8700;48.222;16.342;2023-02-15T17:40:45;5.50;99.90
17170;DHT22;8700;48.222;16.342;2023-02-15T17:44:06;5.40;99.90
17170;DHT22;8700;48.222;16.342;2023-02-15T17:47:33;5.50;99.90
17170;DHT22;8700;48.222;16.342;2023-02-15T17:50:56;5.40;99.90
17170;DHT22;8700;48.222;16.342;2023-02-15T17:54:17;5.40;99.90
17170;DHT22;8700;48.222;16.342;2023-02-15T17:57:56;5.40;99.90
17170;DHT22;8700;48.222;16.342;2023-02-15T18:01:18;5.40;99.90
17170;DHT22;8700;48.222;16.342;2023-02-15T18:04:58;5.20;99.90
17170;DHT22;8700;48.222;16.342;2023-02-15T18:08:38;5.20;99.90
17170;DHT22;8700;48.222;16.342;2023-02-15T18:12:21;5.30;99.90
17170;DHT22;8700;48.222;16.342;2023-02-15T18:15:42;5.30;99.90
17170;DHT22;8700;48.222;16.342;2023-02-15T18:19:04;5.30;99.90
17170;DHT22;8700;48.222;16.342;2023-02-15T18:22:27;5.30;99.90
17170;DHT22;8700;48.222;16.342;2023-02-15T18:25:51;5.30;99.90
17170;DHT22;8700;48.222;16.342;2023-02-15T18:29:12;5.30;99.90
17170;DHT22;8700;48.222;16.342;2023-02-15T18:32:35;5.20;99.90
17170;DHT22;8700;48.222;16.342;2023-02-15T18:35:59;5.30;99.90
17170;DHT22;8700;48.222;16.342;2023-02-15T18:39:28;5.20;99.90
17170;DHT22;8700;48.222;16.342;2023-02-15T18:42:51;5.10;99.90
17170;DHT22;8700;48.222;16.342;2023-02-15T18:46:12;5.00;99.90
17170;DHT22;8700;48.222;16.342;2023-02-15T18:49:34;5.00;99.90
17170;DHT22;8700;48.222;16.342;2023-02-15T18:52:55;4.90;99.90
17170;DHT22;8700;48.222;16.342;2023-02-15T18:56:18;4.90;99.90
17170;DHT22;8700;48.222;16.342;2023-02-15T18:59:42;4.80;99.90
17170;DHT22;8700;48.222;16.342;2023-02-15T19:03:03;4.80;99.90
17170;DHT22;8700;48.222;16.342;2023-02-15T19:06:24;4.80;99.90
17170;DHT22;8700;48.222;16.342;2023-02-15T19:09:48;4.90;99.90
17170;DHT22;8700;48.222;16.342;2023-02-15T19:13:10;4.90;99.90
17170;DHT22;8700;48.222;16.342;2023-02-15T19:16:33;4.90;99.90
17170;DHT22;8700;48.222;16.342;2023-02-15T19:19:55;4.90;99.90
17170;DHT22;8700;48.222;16.342;2023-02-15T19:23:18;5.00;99.90
17170;DHT22;8700;48.222;16.342;2023-02-15T19:26:41;4.90;99.90
17170;DHT22;8700;48.222;16.342;2023-02-15T19:30:09;4.80;99.90
17170;DHT22;8700;48.222;16.342;2023-02-15T19:33:34;4.70;99.90
17170;DHT22;8700;48.222;16.342;2023-02-15T19:36:56;4.50;99.90
17170;DHT22;8700;48.222;16.342;2023-02-15T19:40:21;4.40;99.90
17170;DHT22;8700;48.222;16.342;2023-02-15T19:43:43;4.30;99.90
17170;DHT22;8700;48.222;16.342;2023-02-15T19:47:10;4.30;99.90
17170;DHT22;8700;48.222;16.342;2023-02-15T19:50:37;4.20;99.90
17170;DHT22;8700;48.222;16.342;2023-02-15T19:53:59;4.20;99.90
17170;DHT22;8700;48.222;16.342;2023-02-15T19:57:20;4.20;99.90
17170;DHT22;8700;48.222;16.342;2023-02-15T20:00:42;4.20;99.90
17170;DHT22;8700;48.222;16.342;2023-02-15T20:04:03;4.20;99.90
17170;DHT22;8700;48.222;16.342;2023-02-15T20:07:27;4.20;99.90
17170;DHT22;8700;48.222;16.342;2023-02-15T20:10:48;4.10;99.90
17170;DHT22;8700;48.222;16.342;2023-02-15T20:14:11;4.00;99.90
17170;DHT22;8700;48.222;16.342;2023-02-15T20:17:33;4.00;99.90
17170;DHT22;8700;48.222;16.342;2023-02-15T20:20:55;4.00;99.90
17170;DHT22;8700;48.222;16.342;2023-02-15T20:24:20;4.00;99.90
17170;DHT22;8700;48.222;16.342;2023-02-15T20:27:44;4.00;99.90
17170;DHT22;8700;48.222;16.342;2023-02-15T20:31:08;4.00;99.90
17170;DHT22;8700;48.222;16.342;2023-02-15T20:34:29;4.00;99.90
17170;DHT22;8700;48.222;16.342;2023-02-15T20:37:54;4.00;99.90
17170;DHT22;8700;48.222;16.342;2023-02-15T20:41:19;4.00;99.90
17170;DHT22;8700;48.222;16.342;2023-02-15T20:44:56;4.00;99.90
17170;DHT22;8700;48.222;16.342;2023-02-15T20:48:17;4.00;99.90
17170;DHT22;8700;48.222;16.342;2023-02-15T20:51:38;4.00;99.90
17170;DHT22;8700;48.222;16.342;2023-02-15T20:55:00;4.00;99.90
17170;DHT22;8700;48.222;16.342;2023-02-15T20:58:25;4.00;99.90
17170;DHT22;8700;48.222;16.342;2023-02-15T21:01:46;4.10;99.90
17170;DHT22;8700;48.222;16.342;2023-02-15T21:05:18;4.10;99.90
17170;DHT22;8700;48.222;16.342;2023-02-15T21:08:40;4.10;99.90
17170;DHT22;8700;48.222;16.342;2023-02-15T21:12:01;4.00;99.90
17170;DHT22;8700;48.222;16.342;2023-02-15T21:15:26;3.90;99.90
17170;DHT22;8700;48.222;16.342;2023-02-15T21:18:49;3.80;99.90
17170;DHT22;8700;48.222;16.342;2023-02-15T21:22:11;3.80;99.90
17170;DHT22;8700;48.222;16.342;2023-02-15T21:25:35;3.90;99.90
17170;DHT22;8700;48.222;16.342;2023-02-15T21:28:56;3.90;99.90
17170;DHT22;8700;48.222;16.342;2023-02-15T21:32:20;3.60;99.90
17170;DHT22;8700;48.222;16.342;2023-02-15T21:35:42;3.50;99.90
17170;DHT22;8700;48.222;16.342;2023-02-15T21:39:03;3.50;99.90
17170;DHT22;8700;48.222;16.342;2023-02-15T21:42:26;3.50;99.90
17170;DHT22;8700;48.222;16.342;2023-02-15T21:46:13;3.60;99.90
17170;DHT22;8700;48.222;16.342;2023-02-15T21:49:52;3.50;99.90
17170;DHT22;8700;48.222;16.342;2023-02-15T21:53:19;3.50;99.90
17170;DHT22;8700;48.222;16.342;2023-02-15T21:56:40;3.50;99.90
17170;DHT22;8700;48.222;16.342;2023-02-15T22:00:03;3.40;99.90
17170;DHT22;8700;48.222;16.342;2023-02-15T22:03:25;3.40;99.90
17170;DHT22;8700;48.222;16.342;2023-02-15T22:06:48;3.40;99.90
17170;DHT22;8700;48.222;16.342;2023-02-15T22:10:09;3.40;99.90
17170;DHT22;8700;48.222;16.342;2023-02-15T22:13:32;3.40;99.90
17170;DHT22;8700;48.222;16.342;2023-02-15T22:16:54;3.40;99.90
17170;DHT22;8700;48.222;16.342;2023-02-15T22:20:17;3.30;99.90
17170;DHT22;8700;48.222;16.342;2023-02-15T22:23:42;3.10;99.90
17170;DHT22;8700;48.222;16.342;2023-02-15T22:27:04;3.00;99.90